Time;durP1;ratioP1;P1;durP2;ratioP2;P2;SDS_P1;SDS_P2;PMS_P1;PMS_P2;Temp;Humidity;BMP_temperature;BMP_pressure;BME280_temperature;BME280_humidity;BME280_pressure;Samples;Min_cycle;Max_cycle;Signal;HPM_P1;HPM_P2
2021/08/25 00:02:04;;;;;;;10.90;7.53;;;15.00;99.90;;;;;;5077268;28;20112;-86
2021/08/25 00:04:30;;;;;;;10.93;7.72;;;15.00;99.90;;;;;;5095341;28;20103;-85
2021/08/25 00:06:55;;;;;;;12.63;7.93;;;15.10;99.90;;;;;;5077137;28;20058;-86
2021/08/25 00:09:21;;;;;;;11.88;8.00;;;15.00;99.90;;;;;;5095128;28;20024;-85
2021/08/25 00:11:47;;;;;;;10.25;7.80;;;14.90;99.90;;;;;;5076956;28;20024;-86
2021/08/25 00:14:12;;;;;;;10.43;8.63;;;15.00;99.90;;;;;;5076947;28;20498;-85
2021/08/25 00:16:38;;;;;;;10.55;8.52;;;15.00;99.90;;;;;;5077149;28;20457;-85
2021/08/25 00:19:04;;;;;;;9.15;7.97;;;14.80;99.90;;;;;;5076853;28;20021;-85
2021/08/25 00:21:30;;;;;;;11.70;7.50;;;14.90;99.90;;;;;;5094924;28;20023;-86
2021/08/25 00:23:55;;;;;;;11.07;8.88;;;14.90;99.90;;;;;;5077229;28;20049;-85
2021/08/25 00:26:21;;;;;;;9.65;8.07;;;14.80;99.90;;;;;;5076652;28;20036;-85
2021/08/25 00:28:47;;;;;;;9.52;8.07;;;14.80;99.90;;;;;;5076607;28;20027;-85
2021/08/25 00:31:14;;;;;;;12.43;8.43;;;14.80;99.90;;;;;;5076469;28;20020;-86
2021/08/25 00:33:40;;;;;;;12.90;8.10;;;14.60;99.90;;;;;;5076555;28;20024;-85
2021/08/25 00:36:06;;;;;;;11.25;7.80;;;14.60;99.90;;;;;;5076423;28;20103;-85
2021/08/25 00:38:31;;;;;;;11.88;7.85;;;14.60;99.90;;;;;;5076392;28;20020;-85
2021/08/25 00:40:58;;;;;;;10.57;7.93;;;14.70;99.90;;;;;;5076347;28;20543;-85
2021/08/25 00:43:24;;;;;;;9.27;8.15;;;14.70;99.90;;;;;;5076432;28;20028;-85
2021/08/25 00:45:50;;;;;;;9.65;8.60;;;14.60;99.90;;;;;;5076273;28;20058;-85
2021/08/25 00:48:17;;;;;;;13.00;8.27;;;14.50;99.90;;;;;;5094314;28;20082;-86
2021/08/25 00:50:47;;;;;;;11.10;8.68;;;14.50;99.90;;;;;;5076256;28;20045;-86
2021/08/25 00:53:13;;;;;;;9.52;7.78;;;14.50;99.90;;;;;;5076149;28;20020;-85
2021/08/25 00:55:39;;;;;;;10.77;7.88;;;14.50;99.90;;;;;;5076150;28;20088;-86
2021/08/25 00:58:08;;;;;;;10.73;7.75;;;14.50;99.90;;;;;;5076028;28;20480;-85
2021/08/25 01:00:38;;;;;;;12.07;8.35;;;14.50;99.90;;;;;;5076046;28;20357;-85
2021/08/25 01:03:14;;;;;;;10.48;8.07;;;14.50;99.90;;;;;;5074972;28;20031;-86
2021/08/25 01:05:42;;;;;;;9.35;8.45;;;14.50;99.90;;;;;;5076024;28;20020;-86
2021/08/25 01:08:11;;;;;;;12.13;8.48;;;14.50;99.90;;;;;;5094354;28;20364;-85
2021/08/25 01:10:37;;;;;;;9.93;8.13;;;14.50;99.90;;;;;;5075958;28;20035;-85
2021/08/25 01:13:07;;;;;;;10.95;7.78;;;14.40;99.90;;;;;;5101653;28;20027;-85
2021/08/25 01:15:34;;;;;;;11.52;7.57;;;14.50;99.90;;;;;;5096981;28;20007;-86
2021/08/25 01:18:04;;;;;;;8.63;7.68;;;14.60;99.90;;;;;;5087064;28;20036;-86
2021/08/25 01:20:30;;;;;;;11.57;8.20;;;14.70;99.90;;;;;;5076787;28;20028;-86
2021/08/25 01:22:57;;;;;;;9.45;8.02;;;14.70;99.90;;;;;;5076531;28;20385;-86
2021/08/25 01:25:29;;;;;;;13.18;8.52;;;14.70;99.90;;;;;;5075755;28;20098;-85
2021/08/25 01:27:58;;;;;;;11.40;8.50;;;14.60;99.90;;;;;;5093778;28;20365;-85
2021/08/25 01:30:26;;;;;;;10.10;8.48;;;14.60;99.90;;;;;;5075551;28;20020;-86
2021/08/25 01:32:53;;;;;;;10.02;7.85;;;14.60;99.90;;;;;;5075443;28;20111;-86
2021/08/25 01:35:19;;;;;;;10.70;7.72;;;14.50;99.90;;;;;;5093627;28;20095;-85
2021/08/25 01:37:46;;;;;;;11.10;8.27;;;14.50;99.90;;;;;;5075389;28;20047;-86
2021/08/25 01:40:12;;;;;;;10.50;7.88;;;14.50;99.90;;;;;;5075406;28;20031;-85
2021/08/25 01:42:38;;;;;;;17.42;7.50;;;14.60;99.90;;;;;;5075299;28;20111;-85
2021/08/25 01:45:05;;;;;;;9.52;7.30;;;14.60;99.90;;;;;;5075361;28;20062;-85
2021/08/25 01:47:31;;;;;;;8.25;7.25;;;14.60;99.90;;;;;;5075070;28;20024;-85
2021/08/25 01:49:57;;;;;;;9.93;7.65;;;14.50;99.90;;;;;;5075369;28;20107;-85
2021/08/25 01:52:22;;;;;;;8.55;7.10;;;14.70;99.90;;;;;;5075192;28;20031;-85
2021/08/25 01:54:52;;;;;;;9.00;7.18;;;14.70;99.90;;;;;;5075171;28;20032;-86
2021/08/25 01:57:19;;;;;;;8.48;6.38;;;14.70;99.90;;;;;;5075246;28;20042;-85
2021/08/25 01:59:45;;;;;;;8.98;7.25;;;14.80;99.90;;;;;;5093273;28;20021;-85
2021/08/25 02:02:11;;;;;;;8.43;7.28;;;14.60;99.90;;;;;;5075199;28;20028;-85
2021/08/25 02:04:37;;;;;;;9.88;6.65;;;14.50;99.90;;;;;;5075139;28;20078;-85
2021/08/25 02:07:04;;;;;;;12.43;6.85;;;14.60;99.90;;;;;;5075117;28;20031;-85
2021/08/25 02:09:30;;;;;;;9.65;7.53;;;14.40;99.90;;;;;;5075109;28;20031;-86
2021/08/25 02:11:56;;;;;;;8.52;6.72;;;14.30;99.90;;;;;;5074982;28;20036;-85
2021/08/25 02:14:21;;;;;;;10.15;7.43;;;14.30;99.90;;;;;;5077290;28;20028;-85
2021/08/25 02:16:47;;;;;;;7.55;6.72;;;14.20;99.90;;;;;;5079155;28;20391;-85
2021/08/25 02:19:13;;;;;;;8.77;6.57;;;14.10;99.90;;;;;;5079124;28;20032;-85
2021/08/25 02:21:39;;;;;;;11.20;6.90;;;14.20;99.90;;;;;;5079147;28;20050;-86
2021/08/25 02:24:04;;;;;;;12.02;6.90;;;14.20;99.90;;;;;;5079185;28;20024;-85
2021/08/25 02:26:30;;;;;;;9.10;6.60;;;14.20;99.90;;;;;;5080101;28;20043;-85
2021/08/25 02:28:56;;;;;;;12.00;6.97;;;14.20;99.90;;;;;;5078999;28;20028;-85
2021/08/25 02:31:22;;;;;;;8.50;6.72;;;14.00;99.90;;;;;;5078934;28;20035;-86
2021/08/25 02:33:49;;;;;;;10.75;7.28;;;14.10;99.90;;;;;;5078719;28;20020;-85
2021/08/25 02:36:17;;;;;;;10.90;7.25;;;14.00;99.90;;;;;;5096963;28;20016;-85
2021/08/25 02:38:44;;;;;;;12.20;6.63;;;13.80;99.90;;;;;;5096951;28;20026;-85
2021/08/25 02:41:12;;;;;;;8.05;6.28;;;14.00;99.90;;;;;;5078666;28;20499;-85
2021/08/25 02:43:38;;;;;;;10.43;6.28;;;14.30;99.90;;;;;;5078665;28;20391;-85
2021/08/25 02:46:05;;;;;;;7.80;6.28;;;14.30;99.90;;;;;;5078650;28;20028;-85
2021/08/25 02:48:30;;;;;;;7.80;6.22;;;14.40;99.90;;;;;;5096705;28;20056;-85
2021/08/25 02:50:56;;;;;;;7.10;6.38;;;14.00;99.90;;;;;;5078475;28;20032;-85
2021/08/25 02:53:22;;;;;;;10.93;6.93;;;13.70;99.90;;;;;;5078333;28;20081;-88
2021/08/25 02:55:48;;;;;;;10.07;6.72;;;13.70;99.90;;;;;;5078815;28;20020;-85
2021/08/25 02:58:14;;;;;;;8.77;6.90;;;13.60;99.90;;;;;;5078382;28;20027;-85
2021/08/25 03:00:40;;;;;;;11.32;6.47;;;13.40;99.90;;;;;;5078361;28;20443;-86
2021/08/25 03:03:06;;;;;;;8.35;6.65;;;13.70;99.90;;;;;;5078314;28;20028;-85
2021/08/25 03:05:31;;;;;;;7.32;6.53;;;13.70;99.90;;;;;;5096416;28;20048;-85
2021/08/25 03:07:57;;;;;;;7.97;5.95;;;13.60;99.90;;;;;;5096676;28;20020;-86
2021/08/25 03:10:23;;;;;;;8.68;6.32;;;13.70;99.90;;;;;;5078176;28;20020;-85
2021/08/25 03:12:49;;;;;;;8.98;6.55;;;13.70;99.90;;;;;;5096257;28;20027;-85
2021/08/25 03:15:15;;;;;;;7.53;6.53;;;13.40;99.90;;;;;;5096524;28;20035;-85
2021/08/25 03:17:41;;;;;;;8.40;6.00;;;13.30;99.90;;;;;;5078058;28;20027;-85
2021/08/25 03:20:08;;;;;;;8.57;6.32;;;13.30;99.90;;;;;;5078008;28;20476;-86
2021/08/25 03:22:35;;;;;;;8.63;6.15;;;13.30;99.90;;;;;;5078193;28;20016;-85
2021/08/25 03:25:01;;;;;;;7.35;6.03;;;13.40;99.90;;;;;;5090670;28;20028;-84
2021/08/25 03:27:27;;;;;;;10.20;6.28;;;13.60;99.90;;;;;;5097787;28;20087;-85
2021/08/25 03:29:53;;;;;;;8.10;6.65;;;13.40;99.90;;;;;;5082918;28;20066;-85
2021/08/25 03:32:18;;;;;;;11.57;6.20;;;13.50;99.90;;;;;;5078710;28;20489;-86
2021/08/25 03:34:44;;;;;;;7.55;5.07;;;13.60;99.90;;;;;;5078088;28;20031;-85
2021/08/25 03:37:10;;;;;;;9.95;6.15;;;13.60;99.90;;;;;;5077677;28;20069;-85
2021/08/25 03:39:37;;;;;;;7.95;5.70;;;13.50;99.90;;;;;;5096202;28;20025;-85
2021/08/25 03:42:03;;;;;;;7.05;5.72;;;13.50;99.90;;;;;;5095902;28;20020;-85
2021/08/25 03:44:28;;;;;;;7.47;5.18;;;13.80;99.90;;;;;;5077717;28;20024;-85
2021/08/25 03:46:54;;;;;;;9.90;5.90;;;13.80;99.90;;;;;;5077683;28;20377;-85
2021/08/25 03:49:20;;;;;;;7.13;5.75;;;14.00;99.90;;;;;;5077378;28;20047;-85
2021/08/25 03:51:45;;;;;;;7.80;6.07;;;14.30;99.90;;;;;;5077756;28;20040;-85
2021/08/25 03:54:11;;;;;;;10.88;6.68;;;14.40;99.90;;;;;;5077314;28;20024;-85
2021/08/25 03:56:37;;;;;;;8.07;6.35;;;14.10;99.90;;;;;;5077317;28;20104;-85
2021/08/25 03:59:03;;;;;;;9.90;6.60;;;13.70;99.90;;;;;;5077374;28;20031;-85
2021/08/25 04:01:29;;;;;;;6.68;5.80;;;13.70;99.90;;;;;;5077363;28;20497;-85
2021/08/25 04:03:55;;;;;;;8.20;5.85;;;13.90;99.90;;;;;;5077274;28;20542;-85
2021/08/25 04:06:21;;;;;;;6.45;5.43;;;14.00;99.90;;;;;;5077177;28;20028;-85
2021/08/25 04:08:47;;;;;;;9.27;6.18;;;14.10;99.90;;;;;;5077100;28;20060;-85
2021/08/25 04:11:20;;;;;;;9.85;6.93;;;14.20;99.90;;;;;;5095276;28;20039;-85
2021/08/25 04:13:46;;;;;;;9.27;6.57;;;13.90;99.90;;;;;;5077009;28;20028;-85
2021/08/25 04:16:12;;;;;;;6.90;5.75;;;13.70;99.90;;;;;;5076948;28;20024;-85
2021/08/25 04:18:38;;;;;;;9.82;6.40;;;13.50;99.90;;;;;;5076846;28;20024;-85
2021/08/25 04:21:04;;;;;;;12.32;5.93;;;13.50;99.90;;;;;;5076841;28;20020;-85
2021/08/25 04:23:29;;;;;;;6.78;6.07;;;13.60;99.90;;;;;;5076808;28;20028;-85
2021/08/25 04:25:55;;;;;;;7.43;5.45;;;13.50;99.90;;;;;;5076743;28;20488;-85
2021/08/25 04:28:21;;;;;;;10.23;5.68;;;13.60;99.90;;;;;;5076690;28;20031;-85
2021/08/25 04:30:47;;;;;;;11.05;6.18;;;13.80;99.90;;;;;;5094798;28;20028;-84
2021/08/25 04:33:12;;;;;;;7.78;5.75;;;14.00;99.90;;;;;;5076501;28;20032;-85
2021/08/25 04:35:38;;;;;;;7.72;6.80;;;14.10;99.90;;;;;;5076541;28;20027;-85
2021/08/25 04:38:04;;;;;;;10.70;6.53;;;13.70;99.90;;;;;;5094363;28;20032;-85
2021/08/25 04:40:30;;;;;;;8.48;6.47;;;13.50;99.90;;;;;;5076477;28;20480;-85
2021/08/25 04:42:55;;;;;;;8.85;6.55;;;13.40;99.90;;;;;;5076418;28;20020;-85
2021/08/25 04:45:21;;;;;;;11.68;7.95;;;13.30;99.90;;;;;;5076418;28;20074;-85
2021/08/25 04:47:47;;;;;;;11.40;7.00;;;13.20;99.90;;;;;;5076193;28;20507;-85
2021/08/25 04:50:13;;;;;;;8.10;6.72;;;13.30;99.90;;;;;;5076392;28;20070;-85
2021/08/25 04:52:38;;;;;;;9.10;7.10;;;13.40;99.90;;;;;;5076149;28;20059;-85
2021/08/25 04:55:05;;;;;;;11.63;7.32;;;13.50;99.90;;;;;;5076095;28;20024;-85
2021/08/25 04:57:30;;;;;;;12.15;7.13;;;13.60;99.90;;;;;;5076109;28;20028;-85
2021/08/25 04:59:56;;;;;;;14.40;7.95;;;13.40;99.90;;;;;;5076317;28;20031;-85
2021/08/25 05:02:22;;;;;;;8.60;7.10;;;13.30;99.90;;;;;;5075953;28;20028;-85
2021/08/25 05:04:47;;;;;;;9.40;7.63;;;13.30;99.90;;;;;;5094117;28;20096;-85
2021/08/25 05:07:14;;;;;;;10.88;7.72;;;13.10;99.90;;;;;;5076044;28;20028;-85
2021/08/25 05:09:40;;;;;;;9.20;7.22;;;13.10;99.90;;;;;;5075874;28;20024;-84
2021/08/25 05:12:06;;;;;;;7.28;6.00;;;13.20;99.90;;;;;;5075827;28;20047;-85
2021/08/25 05:14:32;;;;;;;8.60;6.63;;;13.30;99.90;;;;;;5075636;28;20051;-85
2021/08/25 05:16:57;;;;;;;7.85;6.45;;;13.30;99.90;;;;;;5075794;28;20020;-85
2021/08/25 05:19:23;;;;;;;9.27;7.00;;;13.50;99.90;;;;;;5075809;28;20024;-85
2021/08/25 05:21:49;;;;;;;10.05;6.70;;;13.40;99.90;;;;;;5075686;28;20016;-84
2021/08/25 05:24:14;;;;;;;12.20;7.97;;;13.40;99.90;;;;;;5075708;28;20383;-84
2021/08/25 05:26:40;;;;;;;7.88;7.03;;;13.20;99.90;;;;;;5093714;28;20082;-85
2021/08/25 05:29:06;;;;;;;9.60;7.28;;;13.20;99.90;;;;;;5075767;28;20055;-85
2021/08/25 05:31:32;;;;;;;7.60;6.55;;;13.30;99.90;;;;;;5094271;28;20111;-85
2021/08/25 05:33:58;;;;;;;9.63;6.32;;;13.20;99.90;;;;;;5093973;28;20095;-85
2021/08/25 05:36:24;;;;;;;8.25;6.60;;;13.40;99.90;;;;;;5092751;28;20020;-86
2021/08/25 05:38:50;;;;;;;8.18;6.03;;;13.40;99.90;;;;;;5095059;28;20098;-84
2021/08/25 05:41:16;;;;;;;9.90;7.53;;;13.40;99.90;;;;;;5078149;28;20028;-85
2021/08/25 05:43:41;;;;;;;11.90;7.10;;;13.40;99.90;;;;;;5094472;28;20095;-85
2021/08/25 05:46:07;;;;;;;13.45;7.55;;;13.30;99.90;;;;;;5094043;28;20020;-85
2021/08/25 05:48:33;;;;;;;9.00;8.07;;;13.40;99.90;;;;;;5074832;28;20048;-85
2021/08/25 05:50:58;;;;;;;9.98;8.00;;;13.50;99.90;;;;;;5075288;28;20488;-85
2021/08/25 05:53:25;;;;;;;12.02;8.95;;;13.50;99.90;;;;;;5075207;28;20032;-85
2021/08/25 05:55:51;;;;;;;11.25;7.97;;;13.50;99.90;;;;;;5075255;28;20020;-85
2021/08/25 05:58:17;;;;;;;10.82;7.68;;;13.50;99.90;;;;;;5093318;28;20384;-85
2021/08/25 06:00:42;;;;;;;8.80;6.70;;;13.60;99.90;;;;;;5075137;28;20043;-85
2021/08/25 06:03:08;;;;;;;7.00;6.30;;;13.70;99.90;;;;;;5093215;28;20024;-85
2021/08/25 06:05:35;;;;;;;9.38;7.60;;;13.90;99.90;;;;;;5075205;28;20031;-85
2021/08/25 06:08:01;;;;;;;10.52;7.38;;;14.00;99.90;;;;;;5075039;28;20020;-84
2021/08/25 06:10:27;;;;;;;15.63;7.70;;;14.10;99.90;;;;;;5074986;28;20032;-85
2021/08/25 06:12:53;;;;;;;9.40;7.20;;;14.00;99.90;;;;;;5093393;28;20105;-85
2021/08/25 06:15:18;;;;;;;9.00;7.90;;;14.00;99.90;;;;;;5074962;28;20089;-84
2021/08/25 06:17:44;;;;;;;8.35;6.22;;;14.20;99.90;;;;;;5075057;28;20115;-85
2021/08/25 06:20:11;;;;;;;7.70;6.30;;;14.30;99.90;;;;;;5075037;28;20027;-86
2021/08/25 06:22:36;;;;;;;8.50;7.60;;;14.50;99.90;;;;;;5093125;28;20051;-86
2021/08/25 06:25:02;;;;;;;11.70;7.82;;;14.50;99.90;;;;;;5093199;28;20432;-85
2021/08/25 06:27:28;;;;;;;9.52;7.10;;;14.50;99.90;;;;;;5074874;28;20024;-86
2021/08/25 06:29:54;;;;;;;11.25;7.35;;;14.50;99.90;;;;;;5093017;28;20526;-86
2021/08/25 06:32:20;;;;;;;12.38;8.10;;;14.60;99.90;;;;;;5074818;28;20081;-85
2021/08/25 06:34:45;;;;;;;14.52;7.70;;;14.60;99.90;;;;;;5074830;28;20062;-85
2021/08/25 06:37:11;;;;;;;13.27;8.55;;;14.80;99.90;;;;;;5074837;28;20430;-85
2021/08/25 06:39:37;;;;;;;12.55;8.63;;;14.80;99.90;;;;;;5074802;28;20020;-85
2021/08/25 06:42:02;;;;;;;12.82;7.38;;;14.80;99.90;;;;;;5093183;28;20021;-86
2021/08/25 06:44:28;;;;;;;13.27;8.23;;;15.00;99.90;;;;;;5074977;28;20383;-83
2021/08/25 06:46:54;;;;;;;14.90;8.60;;;15.10;99.90;;;;;;5074700;28;20055;-83
2021/08/25 06:49:20;;;;;;;10.15;8.07;;;15.20;99.90;;;;;;5092747;28;20048;-84
2021/08/25 06:51:46;;;;;;;9.52;7.32;;;15.40;99.90;;;;;;5074805;28;20024;-83
2021/08/25 06:54:12;;;;;;;9.15;6.90;;;15.40;99.90;;;;;;5074499;28;20593;-83
2021/08/25 06:56:38;;;;;;;11.82;7.68;;;15.40;99.90;;;;;;5074707;28;20024;-83
2021/08/25 06:59:03;;;;;;;12.75;8.07;;;15.40;99.90;;;;;;5074650;28;20426;-84
2021/08/25 07:01:29;;;;;;;9.27;7.68;;;15.30;99.90;;;;;;5096764;28;20020;-83
2021/08/25 07:03:55;;;;;;;10.50;7.55;;;15.30;99.90;;;;;;5096504;28;20024;-84
2021/08/25 07:06:21;;;;;;;11.23;7.75;;;15.50;99.90;;;;;;5096456;28;20051;-83
2021/08/25 07:08:47;;;;;;;11.10;7.63;;;15.60;99.90;;;;;;5078476;28;20035;-83
2021/08/25 07:11:13;;;;;;;10.65;6.60;;;15.60;99.90;;;;;;5096310;28;20533;-83
2021/08/25 07:13:39;;;;;;;9.32;6.22;;;15.70;99.90;;;;;;5078103;28;20040;-83
2021/08/25 07:16:07;;;;;;;10.75;7.20;;;15.80;99.90;;;;;;5078030;28;20110;-83
2021/08/25 07:18:33;;;;;;;13.15;6.60;;;16.00;99.90;;;;;;5078372;28;20484;-83
2021/08/25 07:20:59;;;;;;;11.60;6.90;;;16.10;99.90;;;;;;5077952;28;20031;-83
2021/08/25 07:23:25;;;;;;;9.80;6.60;;;16.20;99.90;;;;;;5077906;28;20111;-83
2021/08/25 07:25:50;;;;;;;8.80;6.22;;;16.20;99.90;;;;;;5077824;28;20391;-84
2021/08/25 07:28:16;;;;;;;8.77;5.82;;;16.30;99.90;;;;;;5077852;28;20024;-83
2021/08/25 07:30:42;;;;;;;9.02;6.10;;;16.30;99.90;;;;;;5096021;28;20095;-83
2021/08/25 07:33:12;;;;;;;5.82;4.75;;;16.40;99.90;;;;;;5077721;28;20501;-83
2021/08/25 07:35:39;;;;;;;6.68;4.75;;;16.50;99.90;;;;;;5077708;28;20023;-83
2021/08/25 07:38:05;;;;;;;11.65;5.10;;;16.80;99.90;;;;;;5077563;28;20020;-83
2021/08/25 07:40:31;;;;;;;6.03;4.57;;;16.80;99.90;;;;;;5077676;28;20031;-83
2021/08/25 07:42:56;;;;;;;7.65;4.85;;;16.80;99.90;;;;;;5096252;28;20027;-83
2021/08/25 07:45:22;;;;;;;10.38;5.13;;;17.00;99.90;;;;;;5096760;28;20028;-83
2021/08/25 07:47:48;;;;;;;6.47;4.28;;;16.90;99.90;;;;;;5079829;28;20044;-83
2021/08/25 07:50:14;;;;;;;5.70;4.10;;;17.00;99.90;;;;;;5079069;28;20028;-83
2021/08/25 07:52:39;;;;;;;8.88;4.22;;;17.20;99.90;;;;;;5077752;28;20028;-82
2021/08/25 07:55:05;;;;;;;8.77;4.38;;;17.30;99.90;;;;;;5077392;28;20146;-83
2021/08/25 07:57:31;;;;;;;6.40;4.45;;;17.50;99.90;;;;;;5077400;28;20089;-83
2021/08/25 07:59:57;;;;;;;7.65;4.57;;;17.50;99.90;;;;;;5077373;28;20016;-83
2021/08/25 08:02:22;;;;;;;7.47;4.55;;;17.50;99.90;;;;;;5077331;28;20498;-84
2021/08/25 08:04:48;;;;;;;6.55;4.60;;;17.60;99.90;;;;;;5077250;28;20024;-84
2021/08/25 08:07:14;;;;;;;8.30;4.88;;;17.60;99.90;;;;;;5077185;28;20026;-84
2021/08/25 08:09:40;;;;;;;7.32;4.30;;;17.50;99.90;;;;;;5077186;28;20032;-83
2021/08/25 08:12:07;;;;;;;12.35;3.90;;;17.70;99.90;;;;;;5076419;28;20028;-84
2021/08/25 08:14:33;;;;;;;7.05;3.60;;;17.90;99.90;;;;;;5076963;28;20052;-83
2021/08/25 08:17:01;;;;;;;10.68;3.70;;;17.80;99.90;;;;;;5076939;28;20492;-83
2021/08/25 08:19:30;;;;;;;5.70;3.65;;;18.00;99.90;;;;;;5076870;28;20055;-83
2021/08/25 08:21:59;;;;;;;7.28;3.75;;;18.20;99.90;;;;;;5076779;28;20059;-84
2021/08/25 08:24:25;;;;;;;7.85;3.95;;;18.20;99.90;;;;;;5094865;28;20020;-84
2021/08/25 08:26:51;;;;;;;6.13;3.22;;;18.40;99.90;;;;;;5076768;28;20111;-84
2021/08/25 08:29:16;;;;;;;6.47;3.55;;;18.50;99.90;;;;;;5076719;28;20097;-82
2021/08/25 08:31:42;;;;;;;5.40;3.10;;;18.60;99.90;;;;;;5076590;28;20463;-84
2021/08/25 08:34:08;;;;;;;7.10;3.58;;;18.60;99.90;;;;;;5076564;28;20031;-83
2021/08/25 08:36:33;;;;;;;5.10;3.50;;;18.50;99.90;;;;;;5076414;28;20108;-83
2021/08/25 08:38:59;;;;;;;7.85;3.10;;;18.70;99.90;;;;;;5076523;28;20018;-83
2021/08/25 08:41:25;;;;;;;4.82;3.17;;;18.70;99.90;;;;;;5094660;28;20024;-83
2021/08/25 08:43:52;;;;;;;5.75;3.28;;;18.90;99.90;;;;;;5076422;28;20024;-83
2021/08/25 08:46:19;;;;;;;5.43;3.60;;;19.00;99.90;;;;;;5076340;28;20031;-83
2021/08/25 08:48:47;;;;;;;10.13;3.20;;;19.10;99.90;;;;;;5076175;28;20055;-83
2021/08/25 08:51:18;;;;;;;5.90;3.58;;;19.20;99.90;;;;;;5076359;28;20028;-83
2021/08/25 08:53:44;;;;;;;5.28;3.38;;;19.30;99.90;;;;;;5076475;28;20491;-84
2021/08/25 08:56:10;;;;;;;8.30;3.63;;;19.30;99.90;;;;;;5076330;28;20127;-84
2021/08/25 08:58:40;;;;;;;6.07;3.40;;;19.40;99.90;;;;;;5076173;28;20111;-86
2021/08/25 09:01:06;;;;;;;6.35;3.20;;;19.50;99.90;;;;;;5076043;28;20205;-84
2021/08/25 09:03:35;;;;;;;6.05;2.90;;;19.60;99.90;;;;;;5076045;28;20332;-84
2021/08/25 09:06:03;;;;;;;6.88;3.20;;;19.60;99.90;;;;;;5075930;28;20399;-84
2021/08/25 09:08:31;;;;;;;7.20;3.33;;;20.00;99.90;;;;;;5075970;28;20479;-84
2021/08/25 09:11:08;;;;;;;6.43;3.58;;;20.10;99.90;;;;;;5075975;28;20373;-84
2021/08/25 09:13:47;;;;;;;6.25;3.08;;;20.10;99.90;;;;;;5094056;28;20032;-84
2021/08/25 09:16:34;;;;;;;4.20;3.25;;;20.20;99.90;;;;;;5075863;28;20016;-84
2021/08/25 09:19:04;;;;;;;6.88;3.72;;;20.40;99.90;;;;;;5075831;28;20545;-84
2021/08/25 09:21:38;;;;;;;4.45;3.20;;;20.50;99.90;;;;;;5093917;28;20449;-84
2021/08/25 09:24:05;;;;;;;5.80;3.80;;;20.60;99.90;;;;;;5074907;28;20073;-85
2021/08/25 09:26:32;;;;;;;7.10;3.88;;;20.70;99.90;;;;;;5075703;28;20392;-84
2021/08/25 09:29:21;;;;;;;8.55;3.65;;;20.60;99.90;;;;;;5076579;28;20024;-84
2021/08/25 09:31:50;;;;;;;6.47;3.70;;;20.80;99.90;;;;;;5075953;28;20403;-84
2021/08/25 09:34:30;;;;;;;6.57;4.03;;;20.80;99.90;;;;;;5075552;28;20032;-84
2021/08/25 09:37:10;;;;;;;5.88;3.90;;;20.90;99.90;;;;;;5075547;28;20377;-84
2021/08/25 09:39:45;;;;;;;10.63;3.90;;;20.90;99.90;;;;;;5075560;28;20020;-85
2021/08/25 09:42:12;;;;;;;5.40;3.83;;;21.20;99.90;;;;;;5075649;28;20365;-85
2021/08/25 09:44:38;;;;;;;4.30;3.10;;;21.30;99.90;;;;;;5075493;28;20024;-84
2021/08/25 09:47:04;;;;;;;9.02;3.60;;;20.90;99.90;;;;;;5075638;28;20107;-84
2021/08/25 09:49:30;;;;;;;7.35;3.70;;;21.10;99.90;;;;;;5075360;28;20105;-84
2021/08/25 09:51:56;;;;;;;6.05;3.45;;;21.20;99.90;;;;;;5084182;28;20036;-84
2021/08/25 09:54:22;;;;;;;7.55;3.70;;;21.30;99.90;;;;;;5087499;28;20028;-86
2021/08/25 09:56:52;;;;;;;6.15;3.25;;;21.40;99.90;;;;;;5077961;28;20020;-84
2021/08/25 09:59:19;;;;;;;8.32;3.50;;;21.40;99.90;;;;;;5075872;28;20027;-84
2021/08/25 10:01:45;;;;;;;5.00;3.28;;;21.90;99.90;;;;;;5075838;28;20498;-84
2021/08/25 10:04:14;;;;;;;5.85;3.55;;;22.10;99.90;;;;;;5075060;28;20035;-85
2021/08/25 10:06:53;;;;;;;6.97;3.50;;;22.20;99.90;;;;;;5075247;28;20060;-85
2021/08/25 10:09:19;;;;;;;7.57;3.88;;;22.40;99.90;;;;;;5075375;28;20024;-85
2021/08/25 10:11:51;;;;;;;8.98;3.88;;;22.30;99.90;;;;;;5075115;28;20114;-84
2021/08/25 10:14:17;;;;;;;4.93;3.15;;;22.40;99.90;;;;;;5075127;28;20101;-84
2021/08/25 10:16:49;;;;;;;8.55;3.70;;;22.70;99.90;;;;;;5075135;28;20047;-84
2021/08/25 10:19:30;;;;;;;6.70;3.83;;;23.00;99.90;;;;;;5093196;28;20364;-84
2021/08/25 10:22:14;;;;;;;8.70;3.45;;;22.60;99.90;;;;;;5075387;28;20028;-84
2021/08/25 10:24:49;;;;;;;5.32;3.38;;;22.70;99.90;;;;;;5075081;28;20057;-84
2021/08/25 10:27:15;;;;;;;5.13;3.60;;;22.60;99.90;;;;;;5093226;28;20024;-85
2021/08/25 10:30:15;;;;;;;4.88;3.40;;;22.60;99.90;;;;;;5093062;28;20386;-85
2021/08/25 10:32:50;;;;;;;5.40;3.35;;;23.10;99.90;;;;;;5058123;28;20032;-84
2021/08/25 10:35:31;;;;;;;5.15;3.65;;;23.30;99.90;;;;;;5076908;28;20051;-84
2021/08/25 10:38:22;;;;;;;5.88;3.50;;;23.60;99.90;;;;;;5079692;28;20409;-85
2021/08/25 10:40:50;;;;;;;5.18;3.40;;;23.90;99.90;;;;;;5078810;28;20027;-83
2021/08/25 10:43:54;;;;;;;5.18;3.45;;;23.60;99.90;;;;;;5078756;28;20472;-84
2021/08/25 10:46:20;;;;;;;8.13;3.80;;;23.70;99.90;;;;;;4995281;28;20022;-84
2021/08/25 10:48:53;;;;;;;6.03;3.95;;;22.80;99.90;;;;;;5060239;28;20039;-83
2021/08/25 10:51:39;;;;;;;9.95;4.15;;;22.40;99.90;;;;;;5078919;28;20093;-83
2021/08/25 10:54:10;;;;;;;6.20;3.78;;;21.50;99.90;;;;;;5078581;28;20506;-83
2021/08/25 10:56:39;;;;;;;7.00;3.75;;;21.90;99.90;;;;;;5078531;28;20059;-83
2021/08/25 10:59:08;;;;;;;10.43;4.28;;;22.10;99.90;;;;;;5078398;28;20025;-84
2021/08/25 11:01:43;;;;;;;5.53;3.33;;;22.40;99.90;;;;;;5078410;28;20081;-84
2021/08/25 11:04:08;;;;;;;;;;;22.90;99.90;;;;;;5097081;28;20046;-84
2021/08/25 11:06:36;;;;;;;7.18;3.70;;;23.20;99.90;;;;;;5078322;28;19990;-83
2021/08/25 11:09:12;;;;;;;5.93;3.65;;;23.40;99.90;;;;;;5078216;28;20039;-83
2021/08/25 11:11:38;;;;;;;5.40;3.63;;;22.80;99.90;;;;;;5078188;28;20161;-84
2021/08/25 11:14:04;;;;;;;6.13;3.63;;;22.60;99.90;;;;;;5078091;28;20118;-84
2021/08/25 11:16:29;;;;;;;6.40;3.65;;;22.40;99.90;;;;;;5078064;28;20024;-84
2021/08/25 11:18:55;;;;;;;5.00;3.42;;;23.00;99.90;;;;;;5078079;28;20031;-84
2021/08/25 11:21:21;;;;;;;4.85;3.30;;;22.60;99.90;;;;;;5078835;28;20162;-84
2021/08/25 11:23:57;;;;;;;6.78;3.72;;;23.40;99.90;;;;;;5078015;28;20039;-83
2021/08/25 11:26:23;;;;;;;5.38;3.67;;;23.80;99.90;;;;;;5077997;28;20028;-84
2021/08/25 11:28:49;;;;;;;5.65;3.97;;;23.40;99.90;;;;;;5077897;28;20484;-84
2021/08/25 11:31:25;;;;;;;7.07;3.60;;;23.60;99.90;;;;;;5077923;28;20028;-83
2021/08/25 11:33:52;;;;;;;5.05;3.40;;;23.60;99.90;;;;;;5096262;28;20468;-84
2021/08/25 11:36:17;;;;;;;8.05;3.05;;;24.20;99.90;;;;;;5077819;28;20016;-84
2021/08/25 11:38:43;;;;;;;5.63;3.35;;;23.70;99.90;;;;;;5077790;28;20024;-85
2021/08/25 11:41:09;;;;;;;5.65;3.45;;;24.40;99.90;;;;;;5077699;28;20107;-84
2021/08/25 11:43:46;;;;;;;9.38;3.92;;;25.30;99.90;;;;;;5096651;28;20043;-84
2021/08/25 11:46:21;;;;;;;5.93;3.33;;;24.90;99.90;;;;;;5096732;28;20052;-85
2021/08/25 11:48:47;;;;;;;6.78;3.15;;;25.50;99.90;;;;;;5077626;28;20042;-84
2021/08/25 11:51:13;;;;;;;9.27;3.47;;;25.90;99.90;;;;;;5077448;28;20024;-84
2021/08/25 11:53:42;;;;;;;6.43;3.53;;;26.30;99.90;;;;;;5095540;28;20028;-84
2021/08/25 11:56:09;;;;;;;6.13;3.15;;;25.10;99.90;;;;;;5078811;28;20457;-85
2021/08/25 11:58:38;;;;;;;4.55;3.08;;;25.80;99.90;;;;;;5078529;28;20491;-85
2021/08/25 12:01:04;;;;;;;6.78;3.58;;;27.00;99.50;;;;;;5078365;28;20030;-84
2021/08/25 12:03:44;;;;;;;6.60;3.38;;;27.10;99.50;;;;;;5090636;28;20020;-84
2021/08/25 12:06:12;;;;;;;6.78;3.38;;;26.10;99.80;;;;;;5093947;28;20040;-82
2021/08/25 12:08:56;;;;;;;4.63;3.33;;;24.70;99.90;;;;;;5079791;28;20028;-84
2021/08/25 12:11:22;;;;;;;5.78;3.25;;;23.80;99.90;;;;;;5077719;28;20127;-85
2021/08/25 12:13:58;;;;;;;7.07;3.75;;;24.90;99.90;;;;;;5077591;28;20115;-85
2021/08/25 12:16:30;;;;;;;8.07;3.40;;;25.60;99.90;;;;;;5077172;28;20024;-85
2021/08/25 12:18:58;;;;;;;4.00;3.20;;;26.10;99.20;;;;;;5077049;28;20475;-85
2021/08/25 12:21:35;;;;;;;6.95;3.13;;;26.60;98.50;;;;;;5076935;28;20028;-84
2021/08/25 12:24:09;;;;;;;5.10;3.15;;;25.80;99.50;;;;;;5076975;28;20031;-85
2021/08/25 12:26:40;;;;;;;6.22;3.58;;;26.60;98.80;;;;;;5077163;28;20043;-85
2021/08/25 12:29:08;;;;;;;5.65;3.00;;;26.90;98.20;;;;;;5077091;28;20503;-85
2021/08/25 12:31:35;;;;;;;5.53;3.30;;;27.20;97.20;;;;;;5094915;28;20024;-85
2021/08/25 12:34:05;;;;;;;7.30;3.70;;;26.70;97.70;;;;;;5077290;28;20057;-85
2021/08/25 12:36:34;;;;;;;9.30;3.53;;;25.90;97.10;;;;;;5076920;28;20028;-85
2021/08/25 12:39:06;;;;;;;7.78;4.20;;;26.00;98.00;;;;;;5076535;28;20020;-85
2021/08/25 12:41:33;;;;;;;6.20;3.67;;;26.10;98.90;;;;;;5076807;28;20122;-85
2021/08/25 12:43:59;;;;;;;5.03;3.35;;;27.00;96.40;;;;;;5094624;28;20055;-84
2021/08/25 12:46:25;;;;;;;7.90;3.90;;;26.60;97.60;;;;;;5076702;28;20047;-85